Time;durP1;ratioP1;P1;durP2;ratioP2;P2;SDS_P1;SDS_P2;PMS_P1;PMS_P2;Temp;Humidity;BMP_temperature;BMP_pressure;BME280_temperature;BME280_humidity;BME280_pressure;Samples;Min_cycle;Max_cycle;Signal;HPM_P1;HPM_P2
2024/02/05 00:01:17;;;;;;;15.52;4.95;;;;;;;8.83;100.00;102094.69;6083536;19;20310;-73
2024/02/05 00:03:24;;;;;;;17.27;5.20;;;;;;;8.79;100.00;102099.97;6082139;19;20082;-71
2024/02/05 00:05:29;;;;;;;18.88;5.32;;;;;;;8.75;100.00;102093.03;6085029;19;20752;-73
2024/02/05 00:07:34;;;;;;;15.02;5.45;;;;;;;8.77;100.00;102096.50;6082970;19;20101;-74
2024/02/05 00:09:39;;;;;;;32.17;6.70;;;;;;;8.82;100.00;102096.44;6084381;19;20041;-72
2024/02/05 00:11:44;;;;;;;19.48;5.63;;;;;;;8.82;100.00;102098.16;6080130;19;20039;-72
2024/02/05 00:13:49;;;;;;;24.05;5.85;;;;;;;8.81;100.00;102102.56;6085163;19;20118;-72
2024/02/05 00:15:55;;;;;;;21.23;5.47;;;;;;;8.82;100.00;102104.31;6083077;19;20082;-72
2024/02/05 00:17:59;;;;;;;13.23;4.70;;;;;;;8.81;100.00;102109.56;6081002;19;20015;-72
2024/02/05 00:20:09;;;;;;;20.08;6.07;;;;;;;8.74;100.00;102100.88;6081030;19;20019;-72
2024/02/05 00:22:14;;;;;;;25.85;6.43;;;;;;;8.71;100.00;102101.78;6083891;19;20010;-72
2024/02/05 00:24:17;;;;;;;25.63;7.25;;;;;;;8.71;100.00;102101.78;6082924;19;20094;-71
2024/02/05 00:26:23;;;;;;;19.48;4.78;;;;;;;8.74;100.00;102108.75;6082365;19;20018;-72
2024/02/05 00:28:28;;;;;;;24.90;5.93;;;;;;;8.70;100.00;102105.31;6082352;19;20401;-72
2024/02/05 00:30:30;;;;;;;23.63;6.28;;;;;;;8.73;100.00;102112.28;6081945;19;20010;-72
2024/02/05 00:32:37;;;;;;;22.45;5.07;;;;;;;8.79;100.00;102102.59;6081832;19;20030;-72
2024/02/05 00:34:40;;;;;;;19.98;4.28;;;;;;;8.77;100.00;102112.22;6080569;19;20010;-73
2024/02/05 00:36:48;;;;;;;25.17;7.35;;;;;;;8.81;100.00;102117.41;6081577;19;20020;-72
2024/02/05 00:38:53;;;;;;;19.67;5.70;;;;;;;8.78;100.00;102113.06;6076749;19;20010;-71
2024/02/05 00:40:57;;;;;;;28.30;5.50;;;;;;;8.71;100.00;102104.41;6084608;19;20629;-71
2024/02/05 00:43:02;;;;;;;19.30;5.95;;;;;;;8.74;100.00;102100.88;6082897;19;20019;-71
2024/02/05 00:45:10;;;;;;;25.75;5.45;;;;;;;8.74;100.00;102120.13;6079430;19;20531;-72
2024/02/05 00:47:15;;;;;;;17.38;5.05;;;;;;;8.72;100.00;102107.94;6080814;19;20025;-72
2024/02/05 00:49:18;;;;;;;15.80;5.03;;;;;;;8.75;100.00;102107.88;6084662;19;20022;-72
2024/02/05 00:51:23;;;;;;;19.90;5.50;;;;;;;8.69;100.00;102116.69;6082242;19;20018;-72
2024/02/05 00:53:32;;;;;;;26.30;6.03;;;;;;;8.71;100.00;102111.41;6079365;19;20014;-72
2024/02/05 00:55:37;;;;;;;19.88;4.85;;;;;;;8.63;100.00;102102.78;6080585;19;20078;-71
2024/02/05 00:57:44;;;;;;;24.10;5.95;;;;;;;8.60;100.00;102097.59;6082575;19;20035;-73
2024/02/05 00:59:47;;;;;;;25.10;5.85;;;;;;;8.63;100.00;102106.25;6083802;19;20074;-71
2024/02/05 01:01:51;;;;;;;26.90;5.28;;;;;;;8.65;100.00;102101.03;6081053;19;20007;-72
2024/02/05 01:03:54;;;;;;;25.13;5.13;;;;;;;8.64;100.00;102110.63;6082785;19;20002;-73
2024/02/05 01:05:59;;;;;;;19.65;5.60;;;;;;;8.61;100.00;102115.03;6082097;19;20574;-72
2024/02/05 01:08:05;;;;;;;18.10;4.97;;;;;;;8.59;100.00;102109.81;6083517;19;20035;-73
2024/02/05 01:10:12;;;;;;;19.65;5.82;;;;;;;8.57;100.00;102108.97;6082001;19;20626;-74
2024/02/05 01:12:17;;;;;;;17.27;5.93;;;;;;;8.57;100.00;102112.44;6083873;19;20523;-72
2024/02/05 01:14:22;;;;;;;17.77;5.30;;;;;;;8.56;100.00;102108.09;6085216;19;20055;-72
2024/02/05 01:16:28;;;;;;;26.13;6.10;;;;;;;8.60;100.00;102103.69;6083709;19;20031;-74
2024/02/05 01:18:33;;;;;;;19.95;5.07;;;;;;;8.53;100.00;102104.63;6082966;19;20459;-72
2024/02/05 01:20:41;;;;;;;15.65;4.53;;;;;;;8.51;100.00;102104.66;6081085;19;20504;-74
2024/02/05 01:22:47;;;;;;;19.42;5.50;;;;;;;8.51;100.00;102107.28;6083325;19;20043;-75
2024/02/05 01:24:52;;;;;;;13.15;4.47;;;;;;;8.51;100.00;102095.94;6087307;19;20003;-73
2024/02/05 01:26:59;;;;;;;20.98;5.20;;;;;;;8.49;100.00;102095.94;6089630;19;20348;-72
2024/02/05 01:29:06;;;;;;;24.75;5.57;;;;;;;8.44;100.00;102084.66;6082712;19;20006;-72
2024/02/05 01:31:11;;;;;;;25.83;5.75;;;;;;;8.40;100.00;102093.47;6086502;19;20027;-73
2024/02/05 01:33:16;;;;;;;20.05;6.05;;;;;;;8.42;100.00;102093.41;6087554;19;20013;-72
2024/02/05 01:35:22;;;;;;;18.73;5.75;;;;;;;8.38;100.00;102107.41;6087905;19;20392;-72
2024/02/05 01:37:27;;;;;;;22.08;5.68;;;;;;;8.31;100.00;102094.38;6085232;19;20018;-72
2024/02/05 01:39:32;;;;;;;23.10;6.95;;;;;;;8.35;100.00;102092.59;6083122;19;20215;-73
2024/02/05 01:41:40;;;;;;;24.73;6.20;;;;;;;8.32;100.00;102100.47;6087868;19;20006;-72
2024/02/05 01:43:50;;;;;;;18.15;5.53;;;;;;;8.32;100.00;102096.13;6086866;19;20035;-73
2024/02/05 01:45:55;;;;;;;24.45;7.45;;;;;;;8.31;100.00;102109.22;6086440;19;20406;-73
2024/02/05 01:48:00;;;;;;;28.55;6.18;;;;;;;8.29;100.00;102093.53;6084376;19;20649;-74
2024/02/05 01:50:09;;;;;;;19.70;5.47;;;;;;;8.28;100.00;102102.25;6087816;19;20261;-72
2024/02/05 01:52:19;;;;;;;19.70;6.07;;;;;;;8.26;100.00;102088.31;6086620;19;20007;-72
2024/02/05 01:54:28;;;;;;;14.03;5.50;;;;;;;8.24;100.00;102102.31;6087653;19;20019;-72
2024/02/05 01:56:35;;;;;;;22.85;5.18;;;;;;;8.23;100.00;102101.44;6087662;19;20034;-72
2024/02/05 01:58:42;;;;;;;22.88;6.10;;;;;;;8.20;100.00;102088.38;6090330;19;20044;-72
2024/02/05 02:00:50;;;;;;;15.45;5.70;;;;;;;8.22;100.00;102093.63;6085344;19;20329;-71
2024/02/05 02:02:55;;;;;;;20.52;4.97;;;;;;;8.17;100.00;102092.81;6085696;19;20044;-71
2024/02/05 02:05:03;;;;;;;21.02;5.72;;;;;;;8.13;100.00;102095.44;6083411;19;20014;-73
2024/02/05 02:07:06;;;;;;;15.77;5.82;;;;;;;8.16;100.00;102089.28;6087469;19;20078;-71
2024/02/05 02:09:13;;;;;;;24.20;6.35;;;;;;;8.14;100.00;102093.69;6089602;19;20010;-71
2024/02/05 02:11:19;;;;;;;15.00;5.32;;;;;;;8.11;100.00;102091.13;6090448;19;20440;-72
2024/02/05 02:13:24;;;;;;;22.83;6.22;;;;;;;8.12;100.00;102100.69;6087896;19;20018;-72
2024/02/05 02:15:29;;;;;;;24.13;5.85;;;;;;;8.18;100.00;102090.16;6089149;19;20011;-71
2024/02/05 02:17:41;;;;;;;19.27;6.32;;;;;;;8.18;100.00;102094.53;6088465;19;20049;-73
2024/02/05 02:19:48;;;;;;;25.60;6.07;;;;;;;8.17;100.00;102104.13;6087954;19;20011;-73
2024/02/05 02:21:58;;;;;;;22.10;6.82;;;;;;;8.17;100.00;102105.91;6087714;19;20070;-72
2024/02/05 02:24:07;;;;;;;27.77;6.30;;;;;;;8.19;100.00;102093.63;6086230;19;20364;-72
2024/02/05 02:26:12;;;;;;;24.75;5.25;;;;;;;8.19;100.00;102091.91;6086453;19;20404;-73
2024/02/05 02:28:14;;;;;;;35.22;6.18;;;;;;;8.17;100.00;102090.19;6087492;19;20018;-72
2024/02/05 02:30:22;;;;;;;20.98;5.35;;;;;;;8.17;100.00;102093.66;6090200;19;20471;-72
2024/02/05 02:32:38;;;;;;;20.48;6.35;;;;;;;8.17;100.00;102088.44;6088480;19;20010;-72
2024/02/05 02:34:47;;;;;;;20.35;6.25;;;;;;;8.12;100.00;102092.84;6088267;19;20082;-73
2024/02/05 02:37:03;;;;;;;23.30;7.00;;;;;;;8.06;100.00;102092.91;6084746;19;20009;-72
2024/02/05 02:39:17;;;;;;;26.90;7.18;;;;;;;8.14;100.00;102093.69;6087071;19;20010;-73
2024/02/05 02:41:27;;;;;;;29.23;6.22;;;;;;;8.10;100.00;102087.59;5983860;19;2005038;-73
2024/02/05 02:43:32;;;;;;;25.25;6.93;;;;;;;8.11;100.00;102091.13;6083607;19;20411;-74
2024/02/05 02:45:38;;;;;;;25.30;6.25;;;;;;;8.09;100.00;102083.25;6085124;19;20014;-73
2024/02/05 02:47:44;;;;;;;18.48;5.35;;;;;;;8.04;100.00;102078.97;6085648;19;20011;-74
2024/02/05 02:49:49;;;;;;;24.67;5.82;;;;;;;8.05;100.00;102080.69;6086941;19;20039;-72
2024/02/05 02:51:54;;;;;;;27.70;7.60;;;;;;;8.05;100.00;102070.22;6089203;19;20028;-72
2024/02/05 02:53:59;;;;;;;31.60;7.40;;;;;;;8.03;100.00;102074.59;6085002;19;20006;-72
2024/02/05 02:56:09;;;;;;;25.50;6.70;;;;;;;7.99;100.00;102067.66;6086512;19;20019;-72
2024/02/05 02:58:12;;;;;;;23.17;6.38;;;;;;;7.97;100.00;102070.28;6087672;19;20006;-72
2024/02/05 03:00:19;;;;;;;27.85;5.45;;;;;;;7.97;100.00;102064.19;6084776;19;20006;-72
2024/02/05 03:02:24;;;;;;;19.17;6.13;;;;;;;7.90;100.00;102059.03;6087565;19;20086;-71
2024/02/05 03:04:29;;;;;;;20.80;6.60;;;;;;;7.96;100.00;102067.72;6087988;19;20015;-73
2024/02/05 03:06:34;;;;;;;23.58;6.25;;;;;;;7.94;100.00;102059.00;6085147;19;20496;-73
2024/02/05 03:08:39;;;;;;;30.85;6.60;;;;;;;7.85;100.00;102060.81;6085578;19;20237;-73
2024/02/05 03:10:41;;;;;;;17.13;6.18;;;;;;;7.89;100.00;102057.28;6083158;19;20011;-73
2024/02/05 03:12:49;;;;;;;26.88;6.60;;;;;;;7.85;100.00;102058.22;6085428;19;20683;-72
2024/02/05 03:14:54;;;;;;;23.17;5.80;;;;;;;7.83;100.00;102048.63;6084482;19;20006;-73
2024/02/05 03:16:59;;;;;;;19.83;6.05;;;;;;;7.85;100.00;102050.34;6085839;19;20042;-73
2024/02/05 03:19:04;;;;;;;24.55;5.47;;;;;;;7.87;100.00;102053.84;6084967;19;20378;-71
2024/02/05 03:21:10;;;;;;;18.30;6.22;;;;;;;7.87;100.00;102040.75;6086613;19;20021;-72
2024/02/05 03:23:12;;;;;;;18.75;5.35;;;;;;;7.88;100.00;102050.31;6086039;19;20029;-73
2024/02/05 03:25:18;;;;;;;20.48;6.57;;;;;;;7.84;100.00;102048.59;6087448;19;20010;-72
2024/02/05 03:27:23;;;;;;;16.92;5.82;;;;;;;7.83;100.00;102044.25;6079560;19;20018;-71
2024/02/05 03:29:28;;;;;;;26.67;6.43;;;;;;;7.79;100.00;102034.69;6085488;19;20006;-72
2024/02/05 03:31:33;;;;;;;25.02;6.97;;;;;;;7.83;100.00;102032.94;6087191;19;20015;-72
2024/02/05 03:33:35;;;;;;;21.40;6.38;;;;;;;7.79;100.00;102039.94;6086461;19;20006;-72
2024/02/05 03:35:41;;;;;;;22.08;6.03;;;;;;;7.79;100.00;102041.69;6085156;19;20436;-72
2024/02/05 03:37:46;;;;;;;26.38;6.13;;;;;;;7.82;100.00;102049.50;6086248;19;20011;-72
2024/02/05 03:39:51;;;;;;;28.17;6.03;;;;;;;7.84;100.00;102045.97;6082124;19;20006;-72
2024/02/05 03:41:56;;;;;;;23.00;6.20;;;;;;;7.81;100.00;102043.41;6086425;19;20150;-72
2024/02/05 03:44:01;;;;;;;26.35;6.13;;;;;;;7.84;100.00;102047.75;6085220;19;20013;-72
2024/02/05 03:46:08;;;;;;;27.60;6.00;;;;;;;7.86;100.00;102043.38;6081749;19;20040;-73
2024/02/05 03:48:11;;;;;;;17.90;5.13;;;;;;;7.91;100.00;102046.81;6085018;19;20006;-73
2024/02/05 03:50:17;;;;;;;25.88;6.45;;;;;;;7.90;100.00;102040.72;6084127;19;20018;-72
2024/02/05 03:52:19;;;;;;;22.83;6.57;;;;;;;7.91;100.00;102042.44;6080189;19;20995;-71
2024/02/05 03:54:25;;;;;;;15.88;5.82;;;;;;;7.93;100.00;102047.66;6082204;19;20010;-72
2024/02/05 03:56:30;;;;;;;17.38;6.25;;;;;;;7.93;100.00;102039.81;6085651;19;20715;-72
2024/02/05 03:58:35;;;;;;;25.60;5.60;;;;;;;7.93;100.00;102045.03;6085818;19;20374;-71
2024/02/05 04:00:40;;;;;;;26.60;6.05;;;;;;;7.96;100.00;102037.16;6088003;19;20052;-71
2024/02/05 04:02:46;;;;;;;25.52;6.10;;;;;;;7.94;100.00;102032.81;6082646;19;20064;-72
2024/02/05 04:04:51;;;;;;;18.13;6.35;;;;;;;7.91;100.00;102039.81;6081748;19;20483;-72
2024/02/05 04:06:55;;;;;;;19.52;5.10;;;;;;;7.94;100.00;102035.44;6086268;19;20011;-72
2024/02/05 04:09:00;;;;;;;24.55;6.78;;;;;;;7.97;100.00;102033.66;6083804;19;20007;-72
2024/02/05 04:11:05;;;;;;;20.85;6.47;;;;;;;7.98;100.00;102040.63;6085781;19;20014;-72
2024/02/05 04:13:10;;;;;;;22.05;5.93;;;;;;;7.97;100.00;102038.03;6085728;19;20011;-71
2024/02/05 04:15:16;;;;;;;20.63;6.93;;;;;;;8.01;100.00;102032.75;6084140;19;20007;-72
2024/02/05 04:17:22;;;;;;;24.90;6.80;;;;;;;8.02;100.00;102023.13;6086307;19;20006;-72
2024/02/05 04:19:29;;;;;;;15.90;4.88;;;;;;;8.04;100.00;102039.69;6079623;19;20578;-72
2024/02/05 04:21:34;;;;;;;20.85;5.88;;;;;;;8.04;100.00;102032.72;6080627;19;20021;-71
2024/02/05 04:23:39;;;;;;;27.70;6.50;;;;;;;8.04;100.00;102039.69;6084096;19;20006;-71
2024/02/05 04:25:44;;;;;;;22.05;5.95;;;;;;;8.04;100.00;102039.69;6081134;19;20018;-72
2024/02/05 04:27:50;;;;;;;21.98;5.90;;;;;;;8.07;100.00;102022.19;6085100;19;20043;-72
2024/02/05 04:29:56;;;;;;;17.85;6.88;;;;;;;8.10;100.00;102026.53;6085489;19;20079;-72
2024/02/05 04:31:58;;;;;;;22.20;5.88;;;;;;;8.08;100.00;102033.53;6084346;19;20011;-72
2024/02/05 04:34:03;;;;;;;23.75;5.55;;;;;;;8.06;100.00;102040.56;6081925;19;20009;-71
2024/02/05 04:36:15;;;;;;;25.10;5.43;;;;;;;8.08;100.00;102037.03;6080733;19;20393;-72
2024/02/05 04:38:20;;;;;;;22.90;5.65;;;;;;;8.09;100.00;102027.44;6084481;19;20007;-72
2024/02/05 04:40:25;;;;;;;23.77;6.78;;;;;;;8.09;100.00;102025.66;6082698;19;20047;-73
2024/02/05 04:42:30;;;;;;;14.65;4.43;;;;;;;8.10;100.00;102023.91;6084879;19;20013;-74
2024/02/05 04:44:36;;;;;;;18.48;6.20;;;;;;;8.07;100.00;102018.72;6085062;19;20666;-74
2024/02/05 04:46:41;;;;;;;26.13;5.75;;;;;;;8.01;100.00;102018.78;6082323;19;20041;-73
2024/02/05 04:48:47;;;;;;;30.50;6.03;;;;;;;8.04;100.00;102032.72;6084996;19;20106;-73
2024/02/05 04:50:52;;;;;;;29.67;8.30;;;;;;;8.07;100.00;102029.19;6081013;19;20010;-72
2024/02/05 04:53:00;;;;;;;22.55;7.28;;;;;;;8.04;100.00;102029.22;6078074;19;20471;-72
2024/02/05 04:55:05;;;;;;;25.02;7.00;;;;;;;8.06;100.00;102033.56;6083138;19;20066;-72
2024/02/05 04:57:10;;;;;;;16.50;5.30;;;;;;;8.03;100.00;102037.94;6084088;19;20007;-73
2024/02/05 04:59:13;;;;;;;20.63;5.55;;;;;;;8.06;100.00;102037.94;6089547;19;20006;-72
2024/02/05 05:01:19;;;;;;;20.33;5.03;;;;;;;8.08;100.00;102041.38;6085715;19;20006;-71
2024/02/05 05:03:25;;;;;;;15.57;7.13;;;;;;;8.08;100.00;102037.03;6089364;19;20471;-72
2024/02/05 05:05:30;;;;;;;18.40;6.25;;;;;;;8.11;100.00;102036.13;6088778;19;20017;-72
2024/02/05 05:07:35;;;;;;;25.95;5.30;;;;;;;8.06;100.00;102038.81;6084210;19;20762;-71
2024/02/05 05:09:42;;;;;;;20.55;4.85;;;;;;;8.08;100.00;102025.66;6088569;19;20400;-72
2024/02/05 05:11:47;;;;;;;19.90;5.25;;;;;;;8.04;100.00;102035.31;6087059;19;20018;-73
2024/02/05 05:13:50;;;;;;;15.23;5.57;;;;;;;8.07;100.00;102037.91;6088716;19;20011;-72
2024/02/05 05:15:59;;;;;;;23.27;5.75;;;;;;;8.07;100.00;102029.19;6085797;19;20016;-72
2024/02/05 05:18:06;;;;;;;18.08;5.43;;;;;;;8.08;100.00;102036.16;6088304;19;20425;-72
2024/02/05 05:20:13;;;;;;;26.17;6.57;;;;;;;8.03;100.00;102019.63;6087750;19;20562;-72
2024/02/05 05:22:19;;;;;;;26.45;6.35;;;;;;;8.05;100.00;102041.41;6087514;19;20043;-73
2024/02/05 05:24:26;;;;;;;28.15;5.97;;;;;;;8.04;100.00;102039.69;6086869;19;20003;-72
2024/02/05 05:26:34;;;;;;;22.60;6.22;;;;;;;8.04;100.00;102035.31;6087694;19;19998;-72
2024/02/05 05:28:41;;;;;;;20.42;5.45;;;;;;;8.04;100.00;102040.56;6087344;19;20024;-74
2024/02/05 05:30:47;;;;;;;23.40;5.95;;;;;;;8.04;100.00;102039.69;6087142;19;20011;-72
2024/02/05 05:32:52;;;;;;;24.77;6.18;;;;;;;8.04;100.00;102050.16;6086362;19;20110;-74
2024/02/05 05:34:57;;;;;;;20.35;5.90;;;;;;;8.03;100.00;102051.94;6086557;19;20077;-73
2024/02/05 05:37:03;;;;;;;17.00;5.10;;;;;;;8.08;100.00;102041.38;6086636;19;20007;-74
2024/02/05 05:39:10;;;;;;;13.48;5.00;;;;;;;8.07;100.00;102032.66;6087193;19;20727;-74
2024/02/05 05:41:15;;;;;;;20.27;5.18;;;;;;;8.05;100.00;102020.47;6087286;19;20006;-73
2024/02/05 05:43:23;;;;;;;22.50;6.22;;;;;;;8.03;100.00;102019.63;6087768;19;20002;-72
2024/02/05 05:45:29;;;;;;;19.20;6.07;;;;;;;8.03;100.00;102023.13;6086770;19;20027;-74
2024/02/05 05:47:34;;;;;;;17.02;5.90;;;;;;;8.00;100.00;102027.50;6085586;19;20007;-72
2024/02/05 05:49:39;;;;;;;26.27;5.95;;;;;;;7.99;100.00;102020.56;6087311;19;20432;-73
2024/02/05 05:51:45;;;;;;;15.68;5.68;;;;;;;7.98;100.00;102022.31;6084002;19;20007;-72
2024/02/05 05:53:50;;;;;;;15.88;5.50;;;;;;;7.97;100.00;102027.56;6086607;19;20011;-72
2024/02/05 05:55:55;;;;;;;19.58;5.70;;;;;;;7.99;100.00;102029.28;6088474;19;20354;-73
2024/02/05 05:58:00;;;;;;;23.45;6.53;;;;;;;8.03;100.00;102011.78;6084525;19;20010;-73
2024/02/05 06:00:09;;;;;;;18.05;6.05;;;;;;;8.03;100.00;102027.47;6086942;19;20010;-73
2024/02/05 06:02:14;;;;;;;29.08;5.97;;;;;;;8.00;100.00;102025.75;6089125;19;20015;-73
2024/02/05 06:04:19;;;;;;;20.77;5.82;;;;;;;8.01;100.00;102021.41;6086741;19;20020;-74
2024/02/05 06:06:26;;;;;;;25.42;6.72;;;;;;;7.98;100.00;102011.84;6085838;19;19999;-73
2024/02/05 06:08:30;;;;;;;18.10;5.57;;;;;;;8.03;100.00;102022.25;6083882;19;20003;-73
2024/02/05 06:10:36;;;;;;;17.40;5.47;;;;;;;8.00;100.00;102024.91;6084622;19;20002;-74
2024/02/05 06:12:44;;;;;;;24.80;5.65;;;;;;;8.04;100.00;102021.38;6086215;19;20018;-73
2024/02/05 06:14:46;;;;;;;18.77;4.95;;;;;;;8.02;100.00;102010.91;6087071;19;20661;-73
2024/02/05 06:16:54;;;;;;;15.32;4.68;;;;;;;7.99;100.00;102002.22;6084759;19;20467;-73
2024/02/05 06:18:59;;;;;;;24.52;6.93;;;;;;;7.96;100.00;102017.97;6087748;19;20119;-72
2024/02/05 06:21:05;;;;;;;26.77;7.18;;;;;;;7.94;100.00;102014.50;6085131;19;20012;-74
2024/02/05 06:23:10;;;;;;;14.85;5.40;;;;;;;7.98;100.00;102000.47;6086679;19;20461;-72
2024/02/05 06:25:15;;;;;;;15.07;5.15;;;;;;;7.95;100.00;102001.38;6085369;19;19999;-72
2024/02/05 06:27:22;;;;;;;23.00;6.30;;;;;;;7.98;100.00;102010.94;6085977;19;20002;-72
2024/02/05 06:29:27;;;;;;;15.27;5.28;;;;;;;7.97;100.00;102004.84;6087560;19;20007;-74
2024/02/05 06:31:31;;;;;;;17.05;6.40;;;;;;;7.91;100.00;101992.72;6086287;19;20014;-74
2024/02/05 06:33:39;;;;;;;23.58;5.80;;;;;;;7.95;100.00;102003.13;6080549;19;20098;-72
2024/02/05 06:35:44;;;;;;;16.20;5.63;;;;;;;7.94;100.00;102006.66;6084872;19;20082;-72
2024/02/05 06:37:49;;;;;;;18.67;6.15;;;;;;;7.88;100.00;102005.84;6085331;19;20369;-74
2024/02/05 06:39:55;;;;;;;17.20;5.85;;;;;;;7.93;100.00;102011.03;6084685;19;20099;-74
2024/02/05 06:42:00;;;;;;;18.10;6.13;;;;;;;7.89;100.00;102015.41;6085489;19;20035;-74
2024/02/05 06:44:02;;;;;;;24.35;5.75;;;;;;;7.86;100.00;102015.44;6085421;19;20783;-74
2024/02/05 06:46:07;;;;;;;18.08;4.75;;;;;;;7.87;100.00;102019.81;6085549;19;20018;-73
2024/02/05 06:48:12;;;;;;;28.95;6.05;;;;;;;7.81;100.00;102012.00;6083989;19;20019;-74
2024/02/05 06:50:20;;;;;;;15.25;6.72;;;;;;;7.82;100.00;102025.94;6086144;19;20374;-74
2024/02/05 06:52:25;;;;;;;24.13;6.90;;;;;;;7.84;100.00;102030.28;6084339;19;20014;-74
2024/02/05 06:54:33;;;;;;;21.95;5.47;;;;;;;7.83;100.00;102031.19;6083136;19;20109;-73
2024/02/05 06:56:38;;;;;;;21.20;6.03;;;;;;;7.83;100.00;102025.09;6086322;19;20022;-73
2024/02/05 06:58:43;;;;;;;27.95;6.80;;;;;;;7.82;100.00;102031.19;6084104;19;20576;-73
2024/02/05 07:00:49;;;;;;;19.90;5.95;;;;;;;7.83;100.00;102035.56;6080704;19;20082;-73
2024/02/05 07:02:53;;;;;;;22.50;5.95;;;;;;;7.80;100.00;102028.59;6085548;19;20784;-73
2024/02/05 07:05:01;;;;;;;22.27;6.93;;;;;;;7.84;100.00;102032.91;6084234;19;20102;-72
2024/02/05 07:07:08;;;;;;;19.80;5.55;;;;;;;7.85;100.00;102037.28;6085671;19;20044;-73
2024/02/05 07:09:16;;;;;;;28.42;6.43;;;;;;;7.84;100.00;102021.56;6083493;19;20090;-73
2024/02/05 07:11:21;;;;;;;26.00;6.32;;;;;;;7.89;100.00;102035.47;6084635;19;20039;-72
2024/02/05 07:13:26;;;;;;;16.70;6.57;;;;;;;7.88;100.00;102042.47;6085205;19;20014;-73
2024/02/05 07:15:34;;;;;;;16.08;5.80;;;;;;;7.91;100.00;102042.44;6082554;19;20023;-74
2024/02/05 07:17:39;;;;;;;17.92;5.63;;;;;;;7.90;100.00;102032.88;6077423;19;20081;-73
2024/02/05 07:19:41;;;;;;;20.65;6.53;;;;;;;7.86;100.00;102033.75;6083316;19;20003;-72
2024/02/05 07:21:47;;;;;;;23.58;6.32;;;;;;;7.88;100.00;102029.38;6084208;19;20420;-73
2024/02/05 07:23:54;;;;;;;21.58;7.07;;;;;;;7.87;100.00;102043.38;6082269;19;20479;-73
2024/02/05 07:25:57;;;;;;;15.20;5.47;;;;;;;7.87;100.00;102045.97;6083156;19;20572;-72
2024/02/05 07:28:01;;;;;;;16.83;5.28;;;;;;;7.87;100.00;102035.50;6085549;19;20014;-73
2024/02/05 07:30:08;;;;;;;24.15;7.57;;;;;;;7.91;100.00;102045.06;6083842;19;20301;-72
2024/02/05 07:32:11;;;;;;;22.50;5.90;;;;;;;7.87;100.00;102037.25;6082983;19;20060;-73
2024/02/05 07:34:16;;;;;;;24.92;7.07;;;;;;;7.90;100.00;102040.72;6081294;19;20024;-73
2024/02/05 07:36:21;;;;;;;21.00;4.85;;;;;;;7.90;100.00;102043.34;6085022;19;20480;-74
2024/02/05 07:38:26;;;;;;;19.58;5.28;;;;;;;7.91;100.00;102039.81;6085583;19;20011;-74
2024/02/05 07:40:33;;;;;;;22.00;5.63;;;;;;;7.90;100.00;102045.09;6084724;19;20094;-74
2024/02/05 07:42:38;;;;;;;16.80;6.38;;;;;;;7.89;100.00;102023.25;6083061;19;20572;-74
2024/02/05 07:44:43;;;;;;;33.80;8.80;;;;;;;7.91;100.00;102045.06;6085028;19;20022;-73
2024/02/05 07:46:49;;;;;;;23.65;5.80;;;;;;;7.90;100.00;102037.22;6084519;19;20031;-73
2024/02/05 07:48:54;;;;;;;21.98;5.60;;;;;;;7.92;100.00;102048.53;6083277;19;20011;-73
2024/02/05 07:51:00;;;;;;;27.17;7.47;;;;;;;7.91;100.00;102050.28;6084851;19;20498;-73
2024/02/05 07:53:06;;;;;;;22.13;6.68;;;;;;;7.91;100.00;102045.06;6079309;19;20034;-73
2024/02/05 07:55:11;;;;;;;23.58;6.55;;;;;;;7.94;100.00;102038.91;6083564;19;20043;-73
2024/02/05 07:57:19;;;;;;;23.35;6.68;;;;;;;7.96;100.00;102037.16;6083469;19;20007;-72
2024/02/05 07:59:24;;;;;;;24.75;6.40;;;;;;;7.96;100.00;102039.78;6084745;19;20027;-72
2024/02/05 08:01:29;;;;;;;24.80;7.50;;;;;;;7.96;100.00;102037.16;6085183;19;20006;-72
2024/02/05 08:03:35;;;;;;;23.27;7.70;;;;;;;7.96;100.00;102042.41;6082000;19;20013;-72
2024/02/05 08:05:38;;;;;;;28.15;6.70;;;;;;;7.96;100.00;102044.16;6076892;19;20014;-70
2024/02/05 08:07:43;;;;;;;27.70;8.05;;;;;;;7.94;100.00;102038.91;6077835;19;20039;-73
2024/02/05 08:09:50;;;;;;;31.40;8.02;;;;;;;7.98;100.00;102045.88;6082903;19;20006;-71
2024/02/05 08:11:56;;;;;;;14.57;5.45;;;;;;;8.01;100.00;102042.34;6082889;19;20011;-74
2024/02/05 08:14:04;;;;;;;17.05;6.15;;;;;;;7.99;100.00;102037.13;6079902;19;20004;-72
2024/02/05 08:16:10;;;;;;;23.17;6.65;;;;;;;7.98;100.00;102039.75;6080435;19;20039;-73
2024/02/05 08:18:15;;;;;;;18.17;5.45;;;;;;;8.01;100.00;102035.38;6084988;19;20576;-73
2024/02/05 08:20:21;;;;;;;24.15;7.22;;;;;;;8.04;100.00;102045.78;6081889;19;20676;-73
2024/02/05 08:22:28;;;;;;;27.30;5.20;;;;;;;8.05;100.00;102037.03;6083123;19;20010;-73
2024/02/05 08:24:33;;;;;;;17.38;6.20;;;;;;;8.03;100.00;102030.09;6081635;19;20490;-74
2024/02/05 08:26:38;;;;;;;26.00;7.03;;;;;;;8.06;100.00;102033.56;6082785;19;20014;-73
2024/02/05 08:28:43;;;;;;;24.17;5.63;;;;;;;8.07;100.00;102035.28;6082253;19;20011;-73
2024/02/05 08:30:51;;;;;;;20.40;5.43;;;;;;;8.10;100.00;102040.47;6079906;19;20023;-73
2024/02/05 08:32:56;;;;;;;14.43;5.50;;;;;;;8.11;100.00;102034.38;6080661;19;20121;-73
2024/02/05 08:34:58;;;;;;;24.88;6.88;;;;;;;8.14;100.00;102039.59;6082947;19;20038;-74
2024/02/05 08:37:03;;;;;;;24.58;7.22;;;;;;;8.12;100.00;102037.84;6081782;19;20010;-73
2024/02/05 08:39:07;;;;;;;18.15;4.80;;;;;;;8.09;100.00;102033.53;6082705;19;20550;-73
2024/02/05 08:41:12;;;;;;;16.15;5.57;;;;;;;8.09;100.00;102044.00;6083269;19;20010;-73
2024/02/05 08:43:17;;;;;;;35.33;6.40;;;;;;;8.10;100.00;102047.47;6081910;19;20020;-73
2024/02/05 08:45:23;;;;;;;20.15;6.10;;;;;;;8.11;100.00;102038.75;6080795;19;20008;-73
2024/02/05 08:47:31;;;;;;;17.92;6.07;;;;;;;8.12;100.00;102040.47;6080881;19;20002;-73
2024/02/05 08:49:36;;;;;;;20.00;5.88;;;;;;;8.16;100.00;102043.91;6083524;19;20387;-73
2024/02/05 08:51:42;;;;;;;19.23;5.43;;;;;;;8.11;100.00;102030.91;6076724;19;20015;-72
2024/02/05 08:53:48;;;;;;;19.75;5.90;;;;;;;8.12;100.00;102030.00;6077592;19;20043;-74
2024/02/05 08:55:50;;;;;;;22.23;5.63;;;;;;;8.12;100.00;102032.63;6082039;19;20509;-71
2024/02/05 08:57:55;;;;;;;20.85;6.13;;;;;;;8.14;100.00;102036.09;6082933;19;20733;-73
2024/02/05 09:00:00;;;;;;;19.65;6.47;;;;;;;8.16;100.00;102033.44;6079402;19;20109;-72
2024/02/05 09:02:05;;;;;;;23.55;6.45;;;;;;;8.14;100.00;102038.72;6079501;19;20519;-73
2024/02/05 09:04:16;;;;;;;22.70;5.72;;;;;;;8.16;100.00;102028.22;6080574;19;20011;-73
2024/02/05 09:06:21;;;;;;;24.00;7.13;;;;;;;8.10;100.00;102043.09;6081021;19;20010;-74
2024/02/05 09:08:27;;;;;;;17.10;5.40;;;;;;;8.15;100.00;102032.59;6079938;19;20473;-73
2024/02/05 09:10:32;;;;;;;20.92;4.90;;;;;;;8.14;100.00;102041.34;6081372;19;20019;-74
2024/02/05 09:12:37;;;;;;;19.13;6.72;;;;;;;8.11;100.00;102034.38;6080856;19;20013;-73
2024/02/05 09:14:42;;;;;;;21.85;6.30;;;;;;;8.07;100.00;102031.81;6082326;19;20018;-74
2024/02/05 09:16:44;;;;;;;16.85;5.93;;;;;;;8.09;100.00;102040.53;6078827;19;20018;-74
2024/02/05 09:18:50;;;;;;;25.83;5.78;;;;;;;8.11;100.00;102033.53;6082808;19;20428;-73
2024/02/05 09:20:57;;;;;;;24.20;6.35;;;;;;;8.12;100.00;102030.00;6082809;19;20019;-73
2024/02/05 09:23:02;;;;;;;14.70;4.78;;;;;;;8.18;100.00;102031.69;6082939;19;20007;-77
2024/02/05 09:25:07;;;;;;;19.40;5.40;;;;;;;8.19;100.00;102034.31;6081706;19;20015;-72
2024/02/05 09:27:12;;;;;;;21.35;4.80;;;;;;;8.20;100.00;102028.16;6080128;19;20033;-75
2024/02/05 09:29:17;;;;;;;19.75;5.28;;;;;;;8.23;100.00;102029.88;6080945;19;20011;-72
2024/02/05 09:31:22;;;;;;;18.63;4.82;;;;;;;8.23;100.00;102041.22;6081638;19;20531;-73
2024/02/05 09:33:27;;;;;;;20.83;5.63;;;;;;;8.18;100.00;102043.03;6078406;19;20129;-74
2024/02/05 09:35:32;;;;;;;20.25;5.70;;;;;;;8.19;100.00;102023.81;6082003;19;20351;-75
2024/02/05 09:37:38;;;;;;;23.38;6.30;;;;;;;8.19;100.00;102034.31;6083474;19;20031;-74